createdAt,value
2019-06-10T00:00:41.893Z,4.95
2019-06-10T00:03:11.543Z,3.45
2019-06-10T00:05:41.556Z,5.10
2019-06-10T00:08:11.912Z,3.92
2019-06-10T00:10:42.208Z,2.37
2019-06-10T00:13:11.757Z,3.50
2019-06-10T00:15:41.088Z,3.58
2019-06-10T00:18:32.901Z,4.45
2019-06-10T00:20:41.176Z,3.72
2019-06-10T00:23:12.005Z,6.85
2019-06-10T00:25:41.491Z,4.47
2019-06-10T00:28:12.193Z,5.30
2019-06-10T00:30:41.628Z,3.10
2019-06-10T00:33:12.582Z,2.33
2019-06-10T00:35:41.394Z,7.72
2019-06-10T00:38:13.852Z,4.17
2019-06-10T00:40:41.558Z,6.03
2019-06-10T00:43:13.270Z,3.47
2019-06-10T00:45:41.472Z,4.75
2019-06-10T00:48:21.117Z,4.22
2019-06-10T00:50:41.557Z,5.05
2019-06-10T00:53:14.151Z,4.80
2019-06-10T00:55:41.845Z,5.37
2019-06-10T00:58:13.435Z,2.72
2019-06-10T01:00:41.539Z,2.98
2019-06-10T01:03:14.591Z,3.80
2019-06-10T01:05:42.020Z,2.72
2019-06-10T01:08:13.967Z,2.37
2019-06-10T01:10:43.669Z,4.55
2019-06-10T01:13:14.045Z,3.35
2019-06-10T01:15:42.623Z,3.35
2019-06-10T01:18:28.686Z,3.15
2019-06-10T01:20:41.711Z,4.00
2019-06-10T01:23:13.562Z,4.80
2019-06-10T01:25:42.181Z,2.42
2019-06-10T01:28:14.575Z,5.20
2019-06-10T01:30:41.678Z,4.67
2019-06-10T01:33:12.317Z,3.85
2019-06-10T01:35:41.588Z,5.60
2019-06-10T01:38:12.838Z,3.30
2019-06-10T01:40:42.301Z,5.00
2019-06-10T01:43:14.026Z,5.87
2019-06-10T01:45:41.948Z,2.62
2019-06-10T01:48:12.066Z,2.10
2019-06-10T01:50:41.452Z,5.03
2019-06-10T01:53:14.087Z,2.42
2019-06-10T01:55:41.915Z,6.75
2019-06-10T01:58:14.673Z,3.50
2019-06-10T02:00:50.777Z,5.30
2019-06-10T02:03:23.684Z,7.80
2019-06-10T02:05:51.708Z,2.55
2019-06-10T02:08:22.175Z,3.25
2019-06-10T02:10:51.095Z,3.25
2019-06-10T02:13:31.992Z,4.58
2019-06-10T02:16:01.730Z,4.87
2019-06-10T02:18:32.011Z,3.77
2019-06-10T02:21:01.269Z,5.28
2019-06-10T02:23:31.519Z,8.10
2019-06-10T02:26:01.433Z,2.80
2019-06-10T02:28:31.845Z,3.95
2019-06-10T02:31:02.987Z,6.00
2019-06-10T02:33:35.952Z,4.37
2019-06-10T02:36:04.316Z,4.47
2019-06-10T02:38:36.815Z,6.00
2019-06-10T02:41:04.740Z,3.55
2019-06-10T02:43:37.567Z,4.70
2019-06-10T02:46:05.469Z,5.40
2019-06-10T02:48:35.334Z,6.08
2019-06-10T02:51:05.840Z,4.50
2019-06-10T02:53:37.047Z,4.85
2019-06-10T02:56:07.719Z,4.47
2019-06-10T02:58:39.390Z,3.47
2019-06-10T03:01:07.330Z,8.03
2019-06-10T03:03:43.919Z,5.40
2019-06-10T03:06:08.703Z,5.75
2019-06-10T03:08:37.141Z,5.70
2019-06-10T03:11:05.700Z,8.28
2019-06-10T03:13:34.427Z,5.50
2019-06-10T03:16:25.922Z,5.78
2019-06-10T03:18:54.552Z,4.00
2019-06-10T03:21:25.671Z,4.25
2019-06-10T03:23:53.739Z,8.35
2019-06-10T03:26:25.273Z,9.10
2019-06-10T03:28:52.820Z,4.37
2019-06-10T03:31:28.262Z,5.37
2019-06-10T03:33:54.214Z,4.33
2019-06-10T03:36:23.138Z,6.70
2019-06-10T03:38:53.695Z,6.53
2019-06-10T03:41:24.671Z,6.28
2019-06-10T03:43:53.226Z,4.58
2019-06-10T03:46:23.940Z,6.85
2019-06-10T03:48:52.595Z,5.47
2019-06-10T03:51:23.995Z,4.75
2019-06-10T03:53:53.062Z,3.98
2019-06-10T03:56:23.873Z,6.37
2019-06-10T03:58:52.243Z,3.80
2019-06-10T04:01:24.361Z,2.98
2019-06-10T04:03:53.009Z,7.10
2019-06-10T04:06:24.192Z,5.70
2019-06-10T04:08:52.400Z,3.45
2019-06-10T04:11:24.048Z,4.20
2019-06-10T04:13:53.515Z,5.47
2019-06-10T04:16:23.955Z,3.83
2019-06-10T04:18:53.452Z,7.05
2019-06-10T04:21:23.718Z,6.72
2019-06-10T04:23:52.938Z,7.10
2019-06-10T04:26:24.079Z,5.72
2019-06-10T04:28:53.003Z,4.97
2019-06-10T04:31:23.797Z,5.45
2019-06-10T04:33:52.478Z,6.85
2019-06-10T04:36:24.675Z,4.05
2019-06-10T04:38:52.503Z,6.10
2019-06-10T04:41:23.424Z,5.92
2019-06-10T04:43:53.149Z,6.08
2019-06-10T04:46:23.660Z,4.33
2019-06-10T04:48:53.198Z,4.97
2019-06-10T04:51:23.897Z,8.08
2019-06-10T04:53:52.737Z,6.12
2019-06-10T04:56:24.226Z,5.55
2019-06-10T04:58:52.500Z,6.03
2019-06-10T05:01:24.006Z,10.58
2019-06-10T05:03:52.678Z,5.00
2019-06-10T05:06:23.846Z,6.50
2019-06-10T05:08:53.751Z,4.40
2019-06-10T05:11:24.234Z,4.90
2019-06-10T05:13:53.404Z,5.80
2019-06-10T05:16:25.521Z,6.85
2019-06-10T05:18:54.838Z,3.90
2019-06-10T05:21:25.060Z,5.10
2019-06-10T05:23:53.377Z,5.03
2019-06-10T05:26:25.081Z,8.13
2019-06-10T05:28:52.609Z,6.08
2019-06-10T05:31:23.237Z,4.90
2019-06-10T05:33:53.086Z,5.87
2019-06-10T05:36:25.680Z,5.08
2019-06-10T05:38:52.743Z,5.08
2019-06-10T05:41:24.134Z,3.72
2019-06-10T05:43:52.307Z,7.28
2019-06-10T05:46:22.750Z,4.83
2019-06-10T05:48:52.570Z,4.25
2019-06-10T05:51:23.187Z,5.78
2019-06-10T05:53:52.849Z,4.67
2019-06-10T05:56:23.689Z,5.20
2019-06-10T05:58:52.618Z,6.12
2019-06-10T06:01:22.937Z,6.17
2019-06-10T06:03:52.948Z,6.17
2019-06-10T06:06:23.012Z,6.10
2019-06-10T06:08:53.376Z,7.08
2019-06-10T06:11:23.134Z,5.83
2019-06-10T06:13:52.307Z,5.22
2019-06-10T06:16:23.033Z,7.85
2019-06-10T06:18:52.701Z,7.33
2019-06-10T06:21:29.190Z,4.95
2019-06-10T06:23:52.794Z,7.12
2019-06-10T06:26:23.639Z,4.20
2019-06-10T06:28:53.522Z,8.60
2019-06-10T06:31:23.186Z,8.13
2019-06-10T06:33:52.764Z,5.85
2019-06-10T06:36:22.575Z,8.68
2019-06-10T06:38:53.164Z,3.80
2019-06-10T06:41:22.754Z,5.75
2019-06-10T06:43:53.059Z,5.22
2019-06-10T06:46:23.362Z,5.15
2019-06-10T06:48:53.253Z,9.08
2019-06-10T06:51:35.852Z,5.28
2019-06-10T06:53:56.043Z,4.78
2019-06-10T06:56:23.254Z,15.85
2019-06-10T06:58:52.546Z,6.97
2019-06-10T07:01:25.489Z,4.22
2019-06-10T07:03:53.612Z,7.17
2019-06-10T07:06:23.058Z,8.00
2019-06-10T07:09:04.335Z,7.37
2019-06-10T07:11:24.902Z,5.95
2019-06-10T07:13:54.080Z,8.20
2019-06-10T07:16:23.161Z,6.20
2019-06-10T07:18:54.020Z,7.17
2019-06-10T07:21:22.940Z,5.20
2019-06-10T07:23:52.825Z,5.53
2019-06-10T07:26:22.153Z,7.87
2019-06-10T07:28:53.457Z,7.08
2019-06-10T07:31:27.585Z,6.35
2019-06-10T07:33:52.734Z,6.17
2019-06-10T07:36:23.543Z,4.92
2019-06-10T07:38:53.836Z,4.45
2019-06-10T07:41:23.224Z,6.67
2019-06-10T07:43:53.063Z,6.67
2019-06-10T07:46:23.089Z,6.53
2019-06-10T07:48:55.689Z,7.65
2019-06-10T07:51:22.795Z,6.85
2019-06-10T07:53:52.599Z,5.22
2019-06-10T07:56:23.363Z,7.45
2019-06-10T07:58:52.819Z,6.45
2019-06-10T08:01:22.969Z,7.90
2019-06-10T08:03:52.621Z,6.03
2019-06-10T08:06:22.938Z,8.33
2019-06-10T08:08:53.118Z,6.05
2019-06-10T08:11:22.869Z,5.67
2019-06-10T08:13:53.830Z,5.42
2019-06-10T08:16:23.572Z,12.78
2019-06-10T08:19:20.567Z,10.08
2019-06-10T08:21:23.142Z,7.90
2019-06-10T08:23:54.317Z,6.40
2019-06-10T08:26:23.317Z,7.05
2019-06-10T08:28:53.033Z,5.30
2019-06-10T08:31:22.652Z,4.30
2019-06-10T08:33:53.538Z,4.92
2019-06-10T08:36:22.513Z,7.28
2019-06-10T08:38:52.671Z,6.25
2019-06-10T08:41:23.084Z,13.62
2019-06-10T08:43:52.893Z,6.25
2019-06-10T08:46:22.575Z,10.00
2019-06-10T08:48:52.510Z,7.15
2019-06-10T08:51:23.666Z,4.58
2019-06-10T08:53:53.161Z,7.28
2019-06-10T08:56:22.520Z,5.25
2019-06-10T08:58:53.859Z,5.95
2019-06-10T09:01:22.291Z,6.40
2019-06-10T09:03:53.484Z,8.13
2019-06-10T09:06:23.041Z,5.47
2019-06-10T09:08:54.473Z,7.40
2019-06-10T09:11:23.675Z,8.70
2019-06-10T09:13:53.208Z,6.15
2019-06-10T09:16:22.815Z,8.00
2019-06-10T09:18:54.866Z,4.92
2019-06-10T09:21:22.443Z,8.48
2019-06-10T09:23:59.077Z,6.97
2019-06-10T09:26:22.900Z,5.62
2019-06-10T09:28:56.238Z,4.78
2019-06-10T09:31:23.818Z,4.03
2019-06-10T09:33:56.707Z,6.83
2019-06-10T09:36:32.496Z,2.90
2019-06-10T09:39:03.926Z,4.50
2019-06-10T09:41:40.956Z,3.35
2019-06-10T09:44:03.373Z,4.65
2019-06-10T09:46:33.905Z,6.47
2019-06-10T09:49:04.168Z,3.83
2019-06-10T09:51:33.211Z,7.55
2019-06-10T09:54:06.312Z,5.78
2019-06-10T09:56:33.123Z,3.98
2019-06-10T09:59:03.783Z,4.15
2019-06-10T10:01:32.822Z,7.12
2019-06-10T10:04:01.515Z,7.60
2019-06-10T10:06:32.555Z,4.45
2019-06-10T10:09:03.970Z,5.25
2019-06-10T10:11:32.424Z,5.53
2019-06-10T10:14:06.407Z,4.30
2019-06-10T10:16:33.942Z,4.55
2019-06-10T10:19:05.278Z,5.62
2019-06-10T10:21:32.581Z,4.58
2019-06-10T10:24:07.962Z,4.12
2019-06-10T10:26:31.600Z,4.92
2019-06-10T10:29:02.653Z,7.72
2019-06-10T10:31:32.425Z,5.35
2019-06-10T10:34:02.763Z,4.90
2019-06-10T10:36:33.537Z,5.10
2019-06-10T10:39:04.063Z,5.05
2019-06-10T10:41:32.613Z,4.92
2019-06-10T10:44:03.129Z,3.67
2019-06-10T10:46:32.592Z,3.87
2019-06-10T10:49:02.731Z,10.45
2019-06-10T10:51:32.695Z,5.08
2019-06-10T10:54:20.854Z,8.00
2019-06-10T10:56:33.920Z,6.80
2019-06-10T10:59:03.049Z,5.30
2019-06-10T11:01:33.360Z,5.05
2019-06-10T11:04:03.768Z,6.25
2019-06-10T11:06:32.575Z,5.45
2019-06-10T11:09:01.224Z,5.35
2019-06-10T11:11:30.425Z,4.47
2019-06-10T11:14:03.296Z,4.78
2019-06-10T11:16:33.000Z,6.72
2019-06-10T11:19:02.584Z,6.97
2019-06-10T11:21:33.006Z,3.80
2019-06-10T11:24:04.622Z,3.37
2019-06-10T11:26:32.992Z,4.33
2019-06-10T11:29:02.963Z,4.75
2019-06-10T11:31:32.811Z,5.58
2019-06-10T11:34:03.131Z,10.38
2019-06-10T11:36:32.751Z,4.37
2019-06-10T11:39:02.832Z,5.80
2019-06-10T11:41:32.514Z,4.80
2019-06-10T11:44:01.334Z,4.83
2019-06-10T11:46:32.344Z,6.20
2019-06-10T11:49:00.307Z,3.92
2019-06-10T11:51:28.824Z,4.47
2019-06-10T11:53:58.873Z,7.35
2019-06-10T11:56:27.632Z,4.15
2019-06-10T11:58:58.633Z,7.78
2019-06-10T12:01:26.805Z,6.00
2019-06-10T12:03:57.597Z,4.50
2019-06-10T12:06:26.028Z,5.00
2019-06-10T12:08:58.333Z,7.33
2019-06-10T12:11:25.308Z,9.15
2019-06-10T12:14:00.751Z,5.65
2019-06-10T12:18:57.034Z,5.35
2019-06-10T12:21:25.203Z,6.22
2019-06-10T12:23:57.694Z,4.67
2019-06-10T12:26:24.286Z,7.05
2019-06-10T12:28:56.229Z,5.20
2019-06-10T12:31:23.408Z,7.03
2019-06-10T12:33:55.332Z,9.73
2019-06-10T12:36:23.746Z,4.92
2019-06-10T12:38:57.463Z,6.30
2019-06-10T12:41:23.423Z,4.95
2019-06-10T12:43:53.071Z,4.97
2019-06-10T12:46:23.271Z,7.37
2019-06-10T12:48:55.427Z,6.60
2019-06-10T12:51:23.006Z,5.78
2019-06-10T12:53:53.187Z,6.75
2019-06-10T12:56:22.813Z,5.75
2019-06-10T12:58:54.067Z,6.25
2019-06-10T13:01:22.288Z,4.85
2019-06-10T13:03:53.645Z,6.08
2019-06-10T13:06:23.489Z,7.92
2019-06-10T13:08:56.197Z,4.30
2019-06-10T13:11:24.900Z,7.95
2019-06-10T13:13:53.437Z,3.92
2019-06-10T13:16:22.054Z,7.72
2019-06-10T13:18:52.474Z,5.70
2019-06-10T13:21:22.838Z,6.50
2019-06-10T13:23:54.184Z,5.45
2019-06-10T13:26:23.204Z,5.25
2019-06-10T13:28:52.632Z,6.80
2019-06-10T13:31:23.593Z,6.40
2019-06-10T13:33:52.912Z,6.35
2019-06-10T13:36:25.837Z,7.20
2019-06-10T13:38:53.227Z,5.33
2019-06-10T13:41:22.769Z,8.00
2019-06-10T13:43:52.849Z,4.12
2019-06-10T13:46:24.464Z,6.00
2019-06-10T13:48:52.663Z,11.38
2019-06-10T13:51:21.171Z,4.70
2019-06-10T13:53:49.801Z,8.78
2019-06-10T13:56:42.095Z,6.47
2019-06-10T13:58:48.798Z,5.80
2019-06-10T14:01:21.879Z,5.47
2019-06-10T14:03:48.369Z,5.12
2019-06-10T14:06:34.030Z,6.90
2019-06-10T14:08:47.598Z,4.65
2019-06-10T14:11:16.152Z,6.33
2019-06-10T14:13:44.673Z,4.42
2019-06-10T14:16:15.040Z,6.30
2019-06-10T14:18:43.868Z,6.70
2019-06-10T14:21:18.024Z,4.00
2019-06-10T14:23:42.935Z,5.83
2019-06-10T14:26:16.670Z,4.33
2019-06-10T14:28:44.408Z,3.98
2019-06-10T14:31:35.546Z,4.30
2019-06-10T14:33:43.075Z,5.47
2019-06-10T14:36:15.041Z,6.67
2019-06-10T14:38:42.235Z,4.65
2019-06-10T14:41:12.195Z,7.85
2019-06-10T14:43:42.444Z,4.90
2019-06-10T14:46:14.415Z,6.58
2019-06-10T14:48:42.647Z,5.00
2019-06-10T14:51:14.019Z,5.92
2019-06-10T14:53:42.809Z,7.03
2019-06-10T14:56:14.891Z,7.45
2019-06-10T14:58:42.526Z,9.55
2019-06-10T15:01:17.742Z,5.80
2019-06-10T15:03:42.929Z,7.67
2019-06-10T15:06:11.900Z,5.08
2019-06-10T15:08:42.727Z,6.25
2019-06-10T15:11:11.668Z,9.13
2019-06-10T15:13:43.301Z,7.28
2019-06-10T15:16:12.176Z,5.15
2019-06-10T15:18:43.204Z,10.98
2019-06-10T15:21:11.581Z,4.83
2019-06-10T15:23:42.747Z,5.55
2019-06-10T15:26:14.094Z,8.85
2019-06-10T15:28:42.739Z,6.05
2019-06-10T15:31:14.444Z,5.70
2019-06-10T15:33:42.998Z,10.65
2019-06-10T15:36:13.104Z,5.37
2019-06-10T15:38:44.031Z,7.60
2019-06-10T15:41:16.067Z,5.58
2019-06-10T15:43:43.045Z,7.08
2019-06-10T15:46:12.937Z,6.85
2019-06-10T15:48:43.007Z,5.65
2019-06-10T15:51:13.918Z,9.60
2019-06-10T15:53:43.081Z,4.90
2019-06-10T15:56:23.761Z,6.78
2019-06-10T15:58:43.001Z,4.60
2019-06-10T16:01:14.457Z,7.42
2019-06-10T16:03:42.464Z,6.65
2019-06-10T16:06:12.161Z,8.98
2019-06-10T16:08:42.951Z,6.55
2019-06-10T16:11:16.292Z,7.37
2019-06-10T16:13:42.998Z,7.58
2019-06-10T16:16:12.775Z,7.67
2019-06-10T16:18:42.394Z,4.87
2019-06-10T16:21:13.259Z,6.95
2019-06-10T16:23:42.997Z,8.68
2019-06-10T16:26:13.096Z,5.03
2019-06-10T16:28:42.997Z,6.15
2019-06-10T16:31:13.149Z,8.93
2019-06-10T16:33:49.226Z,5.50
2019-06-10T16:36:12.546Z,9.40
2019-06-10T16:38:42.288Z,6.12
2019-06-10T16:41:13.078Z,5.22
2019-06-10T16:43:42.886Z,6.47
2019-06-10T16:46:11.553Z,7.60
2019-06-10T16:48:40.079Z,5.35
2019-06-10T16:51:08.680Z,4.12
2019-06-10T16:53:37.299Z,7.22
2019-06-10T16:56:05.956Z,9.80
2019-06-10T16:58:34.589Z,10.32
2019-06-10T17:01:04.225Z,7.22
2019-06-10T17:03:33.843Z,5.05
2019-06-10T17:06:03.678Z,5.05
2019-06-10T17:08:33.463Z,7.40
2019-06-10T17:11:03.327Z,9.63
2019-06-10T17:13:32.146Z,9.00
2019-06-10T17:16:03.168Z,8.25
2019-06-10T17:18:33.598Z,9.43
2019-06-10T17:21:03.240Z,10.25
2019-06-10T17:23:36.231Z,6.97
2019-06-10T17:26:03.004Z,10.08
2019-06-10T17:28:36.459Z,9.65
2019-06-10T17:31:03.742Z,10.25
2019-06-10T17:33:35.832Z,8.93
2019-06-10T17:36:03.747Z,11.22
2019-06-10T17:38:32.496Z,8.33
2019-06-10T17:41:02.946Z,10.20
2019-06-10T17:43:34.070Z,6.05
2019-06-10T17:46:03.376Z,6.33
2019-06-10T17:48:33.694Z,6.20
2019-06-10T17:51:02.660Z,7.92
2019-06-10T17:53:34.764Z,6.08
2019-06-10T17:56:03.337Z,7.00
2019-06-10T17:58:49.025Z,7.00
2019-06-10T18:01:02.961Z,9.18
2019-06-10T18:03:31.756Z,10.45
2019-06-10T18:06:02.815Z,8.88
2019-06-10T18:08:34.619Z,10.03
2019-06-10T18:11:03.240Z,7.22
2019-06-10T18:13:33.115Z,9.08
2019-06-10T18:16:02.931Z,11.15
2019-06-10T18:18:36.643Z,8.93
2019-06-10T18:21:03.415Z,8.95
2019-06-10T18:23:33.140Z,8.93
2019-06-10T18:26:03.289Z,11.80
2019-06-10T18:28:34.573Z,11.85
2019-06-10T18:31:02.761Z,13.53
2019-06-10T18:33:34.184Z,9.08
2019-06-10T18:36:01.881Z,8.75
2019-06-10T18:38:33.979Z,11.30
2019-06-10T18:41:03.175Z,9.83
2019-06-10T18:43:32.602Z,10.98
2019-06-10T18:46:03.429Z,7.45
2019-06-10T18:48:35.978Z,7.55
2019-06-10T18:51:03.171Z,7.85
2019-06-10T18:53:33.579Z,9.78
2019-06-10T18:56:02.417Z,8.30
2019-06-10T18:58:34.060Z,7.42
2019-06-10T19:01:07.204Z,7.25
2019-06-10T19:03:34.714Z,8.45
2019-06-10T19:06:02.966Z,5.67
2019-06-10T19:08:34.264Z,9.43
2019-06-10T19:11:02.553Z,6.67
2019-06-10T19:13:33.675Z,6.50
2019-06-10T19:16:02.437Z,8.53
2019-06-10T19:18:31.911Z,9.13
2019-06-10T19:21:03.581Z,8.90
2019-06-10T19:23:33.445Z,10.10
2019-06-10T19:26:02.987Z,6.55
2019-06-10T19:28:33.896Z,9.88
2019-06-10T19:31:02.605Z,10.75
2019-06-10T19:33:34.069Z,8.80
2019-06-10T19:36:02.289Z,10.25
2019-06-10T19:38:32.495Z,10.08
2019-06-10T19:41:02.868Z,10.95
2019-06-10T19:43:34.611Z,10.40
2019-06-10T19:46:04.324Z,8.70
2019-06-10T19:48:35.272Z,8.15
2019-06-10T19:51:03.322Z,8.23
2019-06-10T19:53:33.022Z,7.60
2019-06-10T19:56:02.760Z,10.53
2019-06-10T19:58:32.398Z,11.00
2019-06-10T20:01:01.069Z,10.13
2019-06-10T20:03:29.782Z,11.10
2019-06-10T20:05:58.416Z,8.25
2019-06-10T20:08:27.112Z,10.58
2019-06-10T20:10:55.800Z,13.58
2019-06-10T20:13:24.504Z,11.05
2019-06-10T20:15:53.345Z,7.95
2019-06-10T20:18:22.630Z,9.58
2019-06-10T20:20:54.010Z,8.68
2019-06-10T20:23:21.979Z,10.45
2019-06-10T20:25:52.554Z,8.83
2019-06-10T20:28:22.421Z,10.90
2019-06-10T20:30:53.033Z,10.48
2019-06-10T20:33:38.529Z,16.23
2019-06-10T20:36:13.604Z,15.15
2019-06-10T20:38:38.492Z,13.40
2019-06-10T20:41:08.399Z,12.18
2019-06-10T20:43:37.349Z,12.93
2019-06-10T20:46:06.250Z,8.18
2019-06-10T20:48:34.839Z,10.35
2019-06-10T20:51:03.643Z,7.42
2019-06-10T20:53:33.733Z,6.78
2019-06-10T20:56:03.778Z,9.13
2019-06-10T20:58:33.141Z,9.98
2019-06-10T21:01:04.688Z,6.22
2019-06-10T21:03:32.544Z,7.47
2019-06-10T21:06:03.036Z,8.30
2019-06-10T21:08:33.197Z,10.10
2019-06-10T21:11:03.177Z,9.00
2019-06-10T21:13:32.919Z,8.15
2019-06-10T21:16:03.749Z,11.20
2019-06-10T21:18:33.058Z,8.90
2019-06-10T21:21:01.938Z,9.70
2019-06-10T21:23:30.434Z,7.83
2019-06-10T21:25:59.094Z,9.68
2019-06-10T21:28:27.637Z,7.05
2019-06-10T21:30:58.775Z,8.53
2019-06-10T21:33:26.828Z,8.75
2019-06-10T21:35:55.460Z,11.48
2019-06-10T21:38:23.974Z,8.40
2019-06-10T21:40:54.094Z,9.15
2019-06-10T21:43:22.864Z,9.53
2019-06-10T21:45:57.528Z,9.23
2019-06-10T21:48:22.968Z,14.40
2019-06-10T21:50:54.591Z,9.80
2019-06-10T21:53:22.434Z,12.40
2019-06-10T21:55:53.556Z,11.93
2019-06-10T21:58:22.597Z,10.38
2019-06-10T22:01:03.325Z,12.63
2019-06-10T22:03:23.385Z,13.78
2019-06-10T22:05:53.686Z,16.02
2019-06-10T22:08:22.388Z,18.70
2019-06-10T22:10:54.618Z,23.40
2019-06-10T22:13:22.347Z,19.62
2019-06-10T22:15:54.794Z,25.85
2019-06-10T22:18:22.878Z,20.17
2019-06-10T22:20:57.023Z,19.92
2019-06-10T22:23:23.245Z,21.97
2019-06-10T22:25:55.669Z,25.12
2019-06-10T22:28:22.463Z,22.45
2019-06-10T22:30:55.680Z,26.50
2019-06-10T22:33:22.666Z,21.25
2019-06-10T22:35:55.413Z,20.00
2019-06-10T22:38:22.280Z,26.20
2019-06-10T22:40:51.619Z,21.57
2019-06-10T22:43:23.373Z,23.32
2019-06-10T22:45:53.834Z,20.23
2019-06-10T22:48:22.519Z,22.58
2019-06-10T22:50:51.280Z,20.55
2019-06-10T22:53:19.845Z,18.42
2019-06-10T22:55:48.474Z,19.25
2019-06-10T22:58:17.028Z,23.50
2019-06-10T23:00:45.695Z,23.22
2019-06-10T23:03:14.299Z,19.50
2019-06-10T23:05:43.491Z,23.87
2019-06-10T23:08:12.796Z,28.75
2019-06-10T23:10:42.964Z,20.32
2019-06-10T23:13:13.366Z,21.57
2019-06-10T23:15:42.870Z,20.75
2019-06-10T23:18:12.726Z,21.23
2019-06-10T23:20:42.830Z,19.75
2019-06-10T23:23:12.649Z,21.62
2019-06-10T23:25:42.940Z,22.17
2019-06-10T23:28:13.070Z,21.10
2019-06-10T23:30:42.620Z,22.58
2019-06-10T23:33:12.547Z,21.23
2019-06-10T23:35:42.939Z,23.40
2019-06-10T23:38:13.275Z,19.85
2019-06-10T23:40:42.975Z,22.60
2019-06-10T23:43:13.311Z,26.07
2019-06-10T23:45:42.397Z,26.35
2019-06-10T23:48:13.127Z,23.02
2019-06-10T23:50:43.772Z,23.40
2019-06-10T23:53:13.073Z,27.70
2019-06-10T23:55:42.738Z,24.57
2019-06-10T23:58:12.935Z,32.20
